createdAt,value
2023-01-20T00:04:24.139Z,6.20
2023-01-20T00:09:25.273Z,4.70
2023-01-20T00:14:26.406Z,6.00
2023-01-20T00:19:27.611Z,4.90
2023-01-20T00:24:28.800Z,5.90
2023-01-20T00:29:30.087Z,4.10
2023-01-20T00:34:31.354Z,5.40
2023-01-20T00:39:32.530Z,2.50
2023-01-20T00:44:33.653Z,2.90
2023-01-20T00:49:35.822Z,3.90
2023-01-20T00:54:34.982Z,3.30
2023-01-20T00:59:36.124Z,3.70
2023-01-20T01:04:37.325Z,12.80
2023-01-20T01:09:38.518Z,7.10
2023-01-20T01:14:39.678Z,4.30
2023-01-20T01:19:40.879Z,3.90
2023-01-20T01:24:42.049Z,5.50
2023-01-20T01:29:43.191Z,4.40
2023-01-20T01:34:44.363Z,4.00
2023-01-20T01:39:45.738Z,4.50
2023-01-20T01:44:46.905Z,4.70
2023-01-20T01:49:48.156Z,3.70
2023-01-20T01:54:49.347Z,4.80
2023-01-20T01:59:50.522Z,4.30
2023-01-20T02:04:51.794Z,4.20
2023-01-20T02:09:52.991Z,5.40
2023-01-20T02:14:54.323Z,4.40
2023-01-20T02:19:55.516Z,5.00
2023-01-20T02:24:56.766Z,4.40
2023-01-20T02:29:57.900Z,3.70
2023-01-20T02:34:59.143Z,2.70
2023-01-20T02:40:00.343Z,3.80
2023-01-20T02:45:01.493Z,2.50
2023-01-20T02:50:02.637Z,3.00
2023-01-20T02:55:03.813Z,2.70
2023-01-20T03:00:04.977Z,3.30
2023-01-20T03:05:06.206Z,3.60
2023-01-20T03:10:07.381Z,2.90
2023-01-20T03:15:08.497Z,2.10
2023-01-20T03:20:09.634Z,2.40
2023-01-20T03:25:10.758Z,2.40
2023-01-20T03:30:11.952Z,2.00
2023-01-20T03:35:13.372Z,2.80
2023-01-20T03:40:12.976Z,2.70
2023-01-20T03:45:12.155Z,3.30
2023-01-20T03:50:13.352Z,3.30
2023-01-20T03:55:14.711Z,2.70
2023-01-20T04:00:15.960Z,2.40
2023-01-20T04:05:17.316Z,2.30
2023-01-20T04:10:19.550Z,2.30
2023-01-20T04:15:18.901Z,3.10
2023-01-20T04:20:20.052Z,4.40
2023-01-20T04:25:21.272Z,2.60
2023-01-20T04:30:23.459Z,2.80
2023-01-20T04:35:22.648Z,2.90
2023-01-20T04:40:23.801Z,4.10
2023-01-20T04:45:24.980Z,3.90
2023-01-20T04:50:26.132Z,2.90
2023-01-20T04:55:27.293Z,4.10
2023-01-20T05:00:28.545Z,2.70
2023-01-20T05:05:29.709Z,3.40
2023-01-20T05:10:30.884Z,3.90
2023-01-20T05:15:32.207Z,3.50
2023-01-20T05:20:33.442Z,3.80
2023-01-20T05:25:34.666Z,3.30
2023-01-20T05:30:35.912Z,3.20
2023-01-20T05:35:37.490Z,6.20
2023-01-20T05:40:36.660Z,5.50
2023-01-20T05:45:37.851Z,3.60
2023-01-20T05:50:39.070Z,2.90
2023-01-20T05:55:40.274Z,4.60
2023-01-20T06:00:41.412Z,4.90
2023-01-20T06:05:42.531Z,3.10
2023-01-20T06:10:43.644Z,3.00
2023-01-20T06:15:44.967Z,3.60
2023-01-20T06:20:46.161Z,2.90
2023-01-20T06:25:47.298Z,2.70
2023-01-20T06:30:48.518Z,2.80
2023-01-20T06:35:49.676Z,2.80
2023-01-20T06:40:50.864Z,3.10
2023-01-20T06:45:52.099Z,3.40
2023-01-20T06:50:53.272Z,3.80
2023-01-20T06:55:54.402Z,3.40
2023-01-20T07:00:55.670Z,2.90
2023-01-20T07:05:57.135Z,3.50
2023-01-20T07:10:56.324Z,3.30
2023-01-20T07:15:57.578Z,2.90
2023-01-20T07:20:58.800Z,3.10
2023-01-20T07:25:59.930Z,4.90
2023-01-20T07:31:01.112Z,2.90
2023-01-20T07:36:01.270Z,2.90
2023-01-20T07:41:04.758Z,2.60
2023-01-20T07:46:02.185Z,4.30
2023-01-20T07:51:03.353Z,4.40
2023-01-20T07:56:05.469Z,4.00
2023-01-20T08:01:04.793Z,4.40
2023-01-20T08:06:05.961Z,3.10
2023-01-20T08:11:08.169Z,4.00
2023-01-20T08:16:07.312Z,4.00
2023-01-20T08:21:08.613Z,4.30
2023-01-20T08:26:10.789Z,4.80
2023-01-20T08:31:10.047Z,4.50
2023-01-20T08:36:11.226Z,4.40
2023-01-20T08:41:11.379Z,3.90
2023-01-20T08:46:12.555Z,3.20
2023-01-20T08:51:13.881Z,3.50
2023-01-20T08:56:15.083Z,4.70
2023-01-20T09:01:16.220Z,3.50
2023-01-20T09:06:17.367Z,3.30
2023-01-20T09:11:19.590Z,6.10
2023-01-20T09:16:18.780Z,4.40
2023-01-20T09:21:19.940Z,5.70
2023-01-20T09:26:34.670Z,8.00
2023-01-20T09:31:21.129Z,5.10
2023-01-20T09:36:22.295Z,4.50
2023-01-20T09:41:23.454Z,4.40
2023-01-20T09:46:24.649Z,5.10
2023-01-20T09:51:25.834Z,4.20
2023-01-20T09:56:26.975Z,5.70
2023-01-20T10:01:28.217Z,7.80
2023-01-20T10:06:29.376Z,5.10
2023-01-20T10:11:30.590Z,3.30
2023-01-20T10:16:31.709Z,5.40
2023-01-20T10:21:32.890Z,4.90
2023-01-20T10:26:34.053Z,5.10
2023-01-20T10:31:35.203Z,4.20
2023-01-20T10:36:37.390Z,5.80
2023-01-20T10:41:37.521Z,4.90
2023-01-20T10:46:36.701Z,4.40
2023-01-20T10:51:38.823Z,4.70
2023-01-20T10:56:37.955Z,2.50
2023-01-20T11:01:39.218Z,3.30
2023-01-20T11:06:39.377Z,3.30
2023-01-20T11:11:40.518Z,3.50
2023-01-20T11:16:42.660Z,5.30
2023-01-20T11:21:41.786Z,6.00
2023-01-20T11:26:42.969Z,19.40
2023-01-20T11:31:44.497Z,3.10
2023-01-20T11:36:46.054Z,5.10
2023-01-20T11:41:43.398Z,9.10
2023-01-20T11:46:44.609Z,5.90
2023-01-20T11:51:45.809Z,6.90
2023-01-20T11:56:48.010Z,7.30
2023-01-20T12:01:47.187Z,9.00
2023-01-20T12:06:48.329Z,5.70
2023-01-20T12:11:49.478Z,6.20
2023-01-20T12:16:50.596Z,5.20
2023-01-20T12:21:51.819Z,6.40
2023-01-20T12:26:52.977Z,6.90
2023-01-20T12:31:54.576Z,6.60
2023-01-20T12:36:53.839Z,5.40
2023-01-20T12:41:54.981Z,3.60
2023-01-20T12:46:56.184Z,4.20
2023-01-20T12:51:57.355Z,5.00
2023-01-20T12:56:58.551Z,3.50
2023-01-20T13:01:59.783Z,3.20
2023-01-20T13:07:01.945Z,3.50
2023-01-20T13:12:01.092Z,6.10
2023-01-20T13:17:02.280Z,3.50
2023-01-20T13:22:08.214Z,3.80
2023-01-20T13:27:04.435Z,4.30
2023-01-20T13:32:03.557Z,4.20
2023-01-20T13:37:04.732Z,4.50
2023-01-20T13:42:05.934Z,3.20
2023-01-20T13:47:07.103Z,5.30
2023-01-20T13:52:09.271Z,7.70
2023-01-20T13:57:08.978Z,5.70
2023-01-20T14:02:08.113Z,3.80
2023-01-20T14:07:09.284Z,5.90
2023-01-20T14:12:10.405Z,6.80
2023-01-20T14:17:11.589Z,5.70
2023-01-20T14:22:13.775Z,5.20
2023-01-20T14:27:12.954Z,4.70
2023-01-20T14:32:14.138Z,5.60
2023-01-20T14:37:15.307Z,5.80
2023-01-20T14:42:16.459Z,6.20
2023-01-20T14:47:17.594Z,6.60
2023-01-20T14:52:18.748Z,6.40
2023-01-20T14:57:20.856Z,4.60
2023-01-20T15:02:20.149Z,5.50
2023-01-20T15:07:22.306Z,8.30
2023-01-20T15:12:21.447Z,6.40
2023-01-20T15:17:23.648Z,6.70
2023-01-20T15:22:22.764Z,10.60
2023-01-20T15:27:23.940Z,9.80
2023-01-20T15:32:25.102Z,10.40
2023-01-20T15:37:26.243Z,11.60
2023-01-20T15:42:27.421Z,19.80
2023-01-20T15:47:29.617Z,11.90
2023-01-20T15:52:27.766Z,12.30
2023-01-20T15:57:28.895Z,10.40
2023-01-20T16:02:30.071Z,15.40
2023-01-20T16:07:31.303Z,10.60
2023-01-20T16:12:33.481Z,12.80
2023-01-20T16:17:32.658Z,10.50
2023-01-20T16:22:33.767Z,10.40
2023-01-20T16:27:34.905Z,12.40
2023-01-20T16:32:37.062Z,12.00
2023-01-20T16:37:36.203Z,12.60
2023-01-20T16:42:37.351Z,17.20
2023-01-20T16:47:38.544Z,17.30
2023-01-20T16:52:39.711Z,52.90
2023-01-20T16:57:40.890Z,23.70
2023-01-20T17:02:42.125Z,24.90
2023-01-20T17:07:43.550Z,19.10
2023-01-20T17:12:42.777Z,18.70
2023-01-20T17:17:43.947Z,20.80
2023-01-20T17:22:45.160Z,20.50
2023-01-20T17:27:46.395Z,16.50
2023-01-20T17:33:31.754Z,18.10
2023-01-20T17:37:50.038Z,18.70
2023-01-20T17:42:49.432Z,21.00
2023-01-20T17:47:47.720Z,19.60
2023-01-20T17:52:48.937Z,18.70
2023-01-20T17:57:50.154Z,19.60
2023-01-20T18:02:51.318Z,19.70
2023-01-20T18:07:52.514Z,17.80
2023-01-20T18:12:54.906Z,19.70
2023-01-20T18:17:55.435Z,19.80
2023-01-20T18:22:54.944Z,18.40
2023-01-20T18:28:05.155Z,17.80
2023-01-20T18:32:54.380Z,17.80
2023-01-20T18:37:59.388Z,18.50
2023-01-20T18:43:00.698Z,18.30
2023-01-20T18:47:56.724Z,19.00
2023-01-20T18:52:57.917Z,18.40
2023-01-20T18:57:59.387Z,21.70
2023-01-20T19:02:58.779Z,19.00
2023-01-20T19:08:00.224Z,19.20
2023-01-20T19:13:01.582Z,20.40
2023-01-20T19:18:02.947Z,25.70
2023-01-20T19:23:04.421Z,23.80
2023-01-20T19:28:04.315Z,17.00
2023-01-20T19:33:05.851Z,17.60
2023-01-20T19:38:05.400Z,13.20
2023-01-20T19:43:04.926Z,16.10
2023-01-20T19:48:04.433Z,16.90
2023-01-20T19:53:03.920Z,17.10
2023-01-20T19:58:03.387Z,18.40
2023-01-20T20:03:04.884Z,16.80
2023-01-20T20:08:04.397Z,17.80
2023-01-20T20:13:03.931Z,17.80
2023-01-20T20:18:03.507Z,21.00
2023-01-20T20:23:02.606Z,19.90
2023-01-20T20:28:03.978Z,17.80
2023-01-20T20:33:05.408Z,25.10
2023-01-20T20:38:04.738Z,17.60
2023-01-20T20:43:09.935Z,19.80
2023-01-20T20:48:07.428Z,22.00
2023-01-20T20:53:07.923Z,19.10
2023-01-20T20:58:09.169Z,19.60
2023-01-20T21:03:08.466Z,20.50
2023-01-20T21:08:09.657Z,20.90
2023-01-20T21:13:11.013Z,21.80
2023-01-20T21:18:12.254Z,20.40
2023-01-20T21:23:15.642Z,20.00
2023-01-20T21:28:15.966Z,20.50
2023-01-20T21:33:15.362Z,21.00
2023-01-20T21:38:14.996Z,21.30
2023-01-20T21:43:16.171Z,20.40
2023-01-20T21:48:17.522Z,20.80
2023-01-20T21:53:19.006Z,21.90
2023-01-20T21:58:18.280Z,22.60
2023-01-20T22:03:19.480Z,21.40
2023-01-20T22:08:20.707Z,21.80
2023-01-20T22:13:21.933Z,22.50
2023-01-20T22:18:24.117Z,23.50
2023-01-20T22:23:23.288Z,22.90
2023-01-20T22:28:24.673Z,24.10
2023-01-20T22:33:25.817Z,22.80
2023-01-20T22:38:27.081Z,23.50
2023-01-20T22:43:28.272Z,22.10
2023-01-20T22:48:29.412Z,23.30
2023-01-20T22:53:30.570Z,21.60
2023-01-20T22:58:32.718Z,21.40
2023-01-20T23:03:31.887Z,21.10
2023-01-20T23:08:33.374Z,21.30
2023-01-20T23:13:32.533Z,20.40
2023-01-20T23:18:33.727Z,20.60
2023-01-20T23:23:35.916Z,21.60
2023-01-20T23:28:35.069Z,19.60
2023-01-20T23:33:36.258Z,21.00
2023-01-20T23:38:37.465Z,22.70
2023-01-20T23:43:38.579Z,23.00
2023-01-20T23:48:39.788Z,21.40
2023-01-20T23:53:40.946Z,22.20
2023-01-20T23:58:42.098Z,21.00
